Time;durP1;ratioP1;P1;durP2;ratioP2;P2;SDS_P1;SDS_P2;PMS_P1;PMS_P2;Temp;Humidity;BMP_temperature;BMP_pressure;BME280_temperature;BME280_humidity;BME280_pressure;Samples;Min_cycle;Max_cycle;Signal;HPM_P1;HPM_P2
2022/12/05 00:00:07;;;;;;;4.22;1.95;;;;;;;;;;5037670;28;20029;-80
2022/12/05 00:02:33;;;;;;;3.75;2.50;;;;;;;;;;5043167;28;20044;-81
2022/12/05 00:04:59;;;;;;;5.03;2.10;;;;;;;;;;5041807;28;20382;-81
2022/12/05 00:07:25;;;;;;;4.20;2.15;;;;;;;;;;5042782;28;20040;-81
2022/12/05 00:09:50;;;;;;;3.08;1.92;;;;;;;;;;5046040;28;20014;-81
2022/12/05 00:12:16;;;;;;;2.15;1.50;;;;;;;;;;5035498;28;20095;-82
2022/12/05 00:14:43;;;;;;;3.55;2.55;;;;;;;;;;5043239;28;20053;-81
2022/12/05 00:17:08;;;;;;;1.58;1.42;;;;;;;;;;5039049;28;20025;-81
2022/12/05 00:19:34;;;;;;;3.35;2.10;;;;;;;;;;5048423;28;20086;-82
2022/12/05 00:21:59;;;;;;;2.47;1.70;;;;;;;;;;5044685;28;20029;-81
2022/12/05 00:24:25;;;;;;;6.00;3.05;;;;;;;;;;5046623;28;20072;-81
2022/12/05 00:26:50;;;;;;;3.10;2.70;;;;;;;;;;5039455;28;20041;-81
2022/12/05 00:29:16;;;;;;;3.05;1.73;;;;;;;;;;5038270;28;20443;-81
2022/12/05 00:31:41;;;;;;;1.85;1.50;;;;;;;;;;5041563;28;20025;-81
2022/12/05 00:34:07;;;;;;;4.25;3.33;;;;;;;;;;5047023;28;20024;-81
2022/12/05 00:36:34;;;;;;;3.13;2.33;;;;;;;;;;5041277;28;20025;-81
2022/12/05 00:39:03;;;;;;;4.93;3.03;;;;;;;;;;5039320;28;20036;-81
2022/12/05 00:41:29;;;;;;;5.40;3.25;;;;;;;;;;5043901;28;20569;-81
2022/12/05 00:43:56;;;;;;;3.17;2.72;;;;;;;;;;5045801;28;20053;-81
2022/12/05 00:46:25;;;;;;;5.50;3.17;;;;;;;;;;5039561;28;20032;-81
2022/12/05 00:48:55;;;;;;;3.22;2.42;;;;;;;;;;5045034;28;20477;-81
2022/12/05 00:51:36;;;;;;;4.72;2.88;;;;;;;;;;5045184;28;20036;-81
2022/12/05 00:54:04;;;;;;;4.03;2.55;;;;;;;;;;5036584;28;20040;-81
2022/12/05 00:56:31;;;;;;;3.85;2.67;;;;;;;;;;5041730;28;20037;-81
2022/12/05 00:58:58;;;;;;;3.83;2.97;;;;;;;;;;5044476;28;20492;-81
2022/12/05 01:01:38;;;;;;;5.88;2.88;;;;;;;;;;5040707;28;20103;-81
2022/12/05 01:04:11;;;;;;;4.47;3.05;;;;;;;;;;5043084;28;20179;-81
2022/12/05 01:06:36;;;;;;;1.25;1.13;;;;;;;;;;5046082;28;20139;-82
2022/12/05 01:09:04;;;;;;;3.33;2.03;;;;;;;;;;5045060;28;20362;-81
2022/12/05 01:11:30;;;;;;;4.00;2.30;;;;;;;;;;5043311;28;20029;-81
2022/12/05 01:13:56;;;;;;;3.70;2.90;;;;;;;;;;5042084;28;20040;-81
2022/12/05 01:16:26;;;;;;;4.22;2.65;;;;;;;;;;5044938;28;20025;-81
2022/12/05 01:18:52;;;;;;;;;;;;;;;;;;5044313;28;20025;-82
2022/12/05 01:21:19;;;;;;;2.38;2.05;;;;;;;;;;5037672;28;19923;-81
2022/12/05 01:23:44;;;;;;;1.77;1.60;;;;;;;;;;5045440;28;20534;-81
2022/12/05 01:26:13;;;;;;;5.82;4.15;;;;;;;;;;5037063;28;20045;-81
2022/12/05 01:28:39;;;;;;;6.70;3.65;;;;;;;;;;5040667;28;20041;-81
2022/12/05 01:31:21;;;;;;;7.28;3.63;;;;;;;;;;5040534;28;20033;-81
2022/12/05 01:33:47;;;;;;;10.32;3.88;;;;;;;;;;5040829;28;20040;-81
2022/12/05 01:36:13;;;;;;;7.15;3.80;;;;;;;;;;5044336;28;20025;-81
2022/12/05 01:38:40;;;;;;;3.97;2.53;;;;;;;;;;5044242;28;20139;-81
2022/12/05 01:41:08;;;;;;;3.75;2.92;;;;;;;;;;5042596;28;20029;-81
2022/12/05 01:43:52;;;;;;;6.25;2.72;;;;;;;;;;5040239;28;20067;-81
2022/12/05 01:46:18;;;;;;;4.03;2.13;;;;;;;;;;5036245;28;20041;-81
2022/12/05 01:48:43;;;;;;;2.17;2.03;;;;;;;;;;5043360;28;20083;-81
2022/12/05 01:51:09;;;;;;;5.72;2.38;;;;;;;;;;5044701;28;20021;-81
2022/12/05 01:53:35;;;;;;;5.88;3.67;;;;;;;;;;5044991;28;20037;-81
2022/12/05 01:56:01;;;;;;;7.10;3.47;;;;;;;;;;5041938;28;20032;-81
2022/12/05 01:58:31;;;;;;;2.72;2.33;;;;;;;;;;5044618;28;20032;-81
2022/12/05 02:00:57;;;;;;;5.70;3.25;;;;;;;;;;5043023;28;20029;-81
2022/12/05 02:03:22;;;;;;;4.75;3.53;;;;;;;;;;5041133;28;20025;-81
2022/12/05 02:05:52;;;;;;;7.68;3.38;;;;;;;;;;5039685;28;20025;-81
2022/12/05 02:08:18;;;;;;;6.13;3.28;;;;;;;;;;5040802;28;20037;-82
2022/12/05 02:10:47;;;;;;;4.40;2.63;;;;;;;;;;5038175;28;20025;-81
2022/12/05 02:13:25;;;;;;;5.55;3.85;;;;;;;;;;5038663;28;20119;-81
2022/12/05 02:16:10;;;;;;;4.45;3.65;;;;;;;;;;5041003;28;20542;-81
2022/12/05 02:18:41;;;;;;;3.05;1.35;;;;;;;;;;5043204;28;20033;-81
2022/12/05 02:21:39;;;;;;;5.72;2.20;;;;;;;;;;5040866;28;20025;-81
2022/12/05 02:24:39;;;;;;;2.55;2.25;;;;;;;;;;5042912;28;20178;-82
2022/12/05 02:27:33;;;;;;;1.75;1.50;;;;;;;;;;5039075;28;20385;-82
2022/12/05 02:29:58;;;;;;;4.40;2.45;;;;;;;;;;5039589;28;20076;-82
2022/12/05 02:32:49;;;;;;;2.78;1.70;;;;;;;;;;5043126;28;20033;-82
2022/12/05 02:35:41;;;;;;;1.85;1.75;;;;;;;;;;5043028;28;20060;-81
2022/12/05 02:38:25;;;;;;;3.20;1.77;;;;;;;;;;5041906;28;20033;-82
2022/12/05 02:41:09;;;;;;;0.90;0.77;;;;;;;;;;5043413;28;20174;-81
2022/12/05 02:43:43;;;;;;;1.73;1.20;;;;;;;;;;5042732;28;20030;-81
2022/12/05 02:46:13;;;;;;;2.05;1.10;;;;;;;;;;5042606;28;20036;-81
2022/12/05 02:48:41;;;;;;;1.20;1.05;;;;;;;;;;5043497;28;20029;-81
2022/12/05 02:51:09;;;;;;;2.15;1.45;;;;;;;;;;5041155;28;20025;-81
2022/12/05 02:53:36;;;;;;;1.25;1.15;;;;;;;;;;5035805;28;20036;-81
2022/12/05 02:56:03;;;;;;;1.50;1.40;;;;;;;;;;5034239;28;20025;-81
2022/12/05 02:58:40;;;;;;;1.48;1.38;;;;;;;;;;5044221;28;20542;-81
2022/12/05 03:01:06;;;;;;;2.17;1.45;;;;;;;;;;5038017;28;20029;-81
2022/12/05 03:03:32;;;;;;;1.55;0.77;;;;;;;;;;5041369;28;20036;-81
2022/12/05 03:06:06;;;;;;;1.13;1.02;;;;;;;;;;5041145;28;20033;-81
2022/12/05 03:08:39;;;;;;;1.27;1.00;;;;;;;;;;5040166;28;20025;-81
2022/12/05 03:11:05;;;;;;;1.50;1.40;;;;;;;;;;5041692;28;20100;-81
2022/12/05 03:13:39;;;;;;;2.05;1.65;;;;;;;;;;5040863;28;20029;-81
2022/12/05 03:16:13;;;;;;;3.03;1.77;;;;;;;;;;5036885;28;20386;-81
2022/12/05 03:18:52;;;;;;;3.88;1.63;;;;;;;;;;5039622;28;20033;-81
2022/12/05 03:21:30;;;;;;;2.10;1.63;;;;;;;;;;5042947;28;20060;-81
2022/12/05 03:24:01;;;;;;;3.75;1.55;;;;;;;;;;5044190;28;20385;-81
2022/12/05 03:26:36;;;;;;;2.33;1.88;;;;;;;;;;5046679;28;20056;-80
2022/12/05 03:29:32;;;;;;;2.17;1.48;;;;;;;;;;5039645;28;20033;-81
2022/12/05 03:32:14;;;;;;;1.35;1.25;;;;;;;;;;5048958;28;20042;-81
2022/12/05 03:34:48;;;;;;;2.65;1.38;;;;;;;;;;5043595;28;20549;-81
2022/12/05 03:37:25;;;;;;;2.83;2.45;;;;;;;;;;5042629;28;20087;-81
2022/12/05 03:40:07;;;;;;;4.20;2.13;;;;;;;;;;5043147;28;20039;-81
2022/12/05 03:42:36;;;;;;;4.18;2.30;;;;;;;;;;5046278;28;20032;-81
2022/12/05 03:45:10;;;;;;;3.55;2.17;;;;;;;;;;5045285;28;20034;-81
2022/12/05 03:48:26;;;;;;;1.58;1.48;;;;;;;;;;5041438;28;20033;-80
2022/12/05 03:50:53;;;;;;;4.10;3.20;;;;;;;;;;4984232;28;20021;-80
2022/12/05 03:53:24;;;;;;;7.18;4.50;;;;;;;;;;5004493;28;20045;-81
2022/12/05 03:55:59;;;;;;;5.82;3.63;;;;;;;;;;5024589;28;20044;-81
2022/12/05 03:58:34;;;;;;;5.95;3.78;;;;;;;;;;5044349;28;20040;-81
2022/12/05 04:01:03;;;;;;;6.13;2.75;;;;;;;;;;5040709;28;20025;-81
2022/12/05 04:03:43;;;;;;;7.30;3.53;;;;;;;;;;5045108;28;20030;-81
2022/12/05 04:06:20;;;;;;;;;;;;;;;;;;5047542;28;20029;-82
2022/12/05 04:09:15;;;;;;;2.95;2.50;;;;;;;;;;5038618;28;19913;-81
2022/12/05 04:11:47;;;;;;;9.32;3.38;;;;;;;;;;5045914;28;20070;-81
2022/12/05 04:14:18;;;;;;;6.30;2.95;;;;;;;;;;5045726;28;20025;-81
2022/12/05 04:17:04;;;;;;;5.10;3.25;;;;;;;;;;5042957;28;20507;-81
2022/12/05 04:22:47;;;;;;;4.38;2.60;;;;;;;;;;5041194;28;20021;-81
2022/12/05 04:25:33;;;;;;;3.75;2.08;;;;;;;;;;5044535;28;20044;-81
2022/12/05 04:28:11;;;;;;;3.88;2.72;;;;;;;;;;5044334;28;20478;-81
2022/12/05 04:30:45;;;;;;;7.13;4.18;;;;;;;;;;5042249;28;20931;-81
2022/12/05 04:33:55;;;;;;;4.13;3.03;;;;;;;;;;5043758;28;20468;-81
2022/12/05 04:36:26;;;;;;;4.65;3.33;;;;;;;;;;5027746;28;20115;-80
2022/12/05 04:39:00;;;;;;;3.35;2.88;;;;;;;;;;5044093;28;20469;-81
2022/12/05 04:41:31;;;;;;;3.80;2.22;;;;;;;;;;5045676;28;20056;-81
2022/12/05 04:44:00;;;;;;;3.83;1.88;;;;;;;;;;5044509;28;20392;-82
2022/12/05 04:46:25;;;;;;;1.35;1.25;;;;;;;;;;5042210;28;20129;-82
2022/12/05 04:48:55;;;;;;;6.03;2.65;;;;;;;;;;5037894;28;20085;-82
2022/12/05 04:51:22;;;;;;;;;;;;;;;;;;5039586;28;20029;-81
2022/12/05 04:53:53;;;;;;;3.00;2.35;;;;;;;;;;5043685;28;19917;-81
2022/12/05 04:56:23;;;;;;;2.55;1.58;;;;;;;;;;5037284;28;20564;-81
2022/12/05 04:58:48;;;;;;;3.40;2.53;;;;;;;;;;5036957;28;20552;-81
2022/12/05 05:01:17;;;;;;;1.63;1.52;;;;;;;;;;5035126;28;20117;-81
2022/12/05 05:03:55;;;;;;;3.38;2.60;;;;;;;;;;5035401;28;20540;-81
2022/12/05 05:06:21;;;;;;;3.17;2.28;;;;;;;;;;5031283;28;20437;-80
2022/12/05 05:08:55;;;;;;;4.00;2.97;;;;;;;;;;5033153;28;20049;-81
2022/12/05 05:11:29;;;;;;;5.72;2.47;;;;;;;;;;5041761;28;20021;-80
2022/12/05 05:13:54;;;;;;;3.45;2.92;;;;;;;;;;5036840;28;20112;-82
2022/12/05 05:16:26;;;;;;;3.28;2.60;;;;;;;;;;5038399;28;20100;-83
2022/12/05 05:18:52;;;;;;;5.28;3.03;;;;;;;;;;5041005;28;20477;-84
2022/12/05 05:21:27;;;;;;;4.13;2.47;;;;;;;;;;5036845;28;20033;-83
2022/12/05 05:23:53;;;;;;;4.90;3.75;;;;;;;;;;5038513;28;20393;-84
2022/12/05 05:26:20;;;;;;;3.90;2.33;;;;;;;;;;5040972;28;20049;-84
2022/12/05 05:28:46;;;;;;;3.28;2.60;;;;;;;;;;5042266;28;20028;-82
2022/12/05 05:31:12;;;;;;;6.35;3.45;;;;;;;;;;5040036;28;20497;-86
2022/12/05 05:33:38;;;;;;;4.63;2.17;;;;;;;;;;5037357;28;20101;-85
2022/12/05 05:36:05;;;;;;;5.10;3.20;;;;;;;;;;5044899;28;20036;-83
2022/12/05 05:38:35;;;;;;;5.20;3.90;;;;;;;;;;5036250;28;20045;-84
2022/12/05 05:41:01;;;;;;;4.30;2.75;;;;;;;;;;5030798;28;20033;-83
2022/12/05 05:43:27;;;;;;;4.57;2.95;;;;;;;;;;5043548;28;20024;-84
2022/12/05 05:45:52;;;;;;;2.90;2.13;;;;;;;;;;5039435;28;20021;-83
2022/12/05 05:48:17;;;;;;;3.03;2.53;;;;;;;;;;5041363;28;20029;-85
2022/12/05 05:50:43;;;;;;;3.10;2.28;;;;;;;;;;5041516;28;20473;-84
2022/12/05 05:53:08;;;;;;;11.27;3.65;;;;;;;;;;5040292;28;20482;-83
2022/12/05 05:55:33;;;;;;;7.18;3.25;;;;;;;;;;5038296;28;20068;-85
2022/12/05 05:57:59;;;;;;;9.68;3.38;;;;;;;;;;5038504;28;20052;-83
2022/12/05 06:00:24;;;;;;;7.97;3.97;;;;;;;;;;5040045;28;20032;-83
2022/12/05 06:02:50;;;;;;;6.68;3.75;;;;;;;;;;5039531;28;20029;-83
2022/12/05 06:05:15;;;;;;;5.57;2.78;;;;;;;;;;5041595;28;20033;-85
2022/12/05 06:07:41;;;;;;;6.00;3.53;;;;;;;;;;5042174;28;20481;-84
2022/12/05 06:10:07;;;;;;;10.25;4.20;;;;;;;;;;5042093;28;20022;-82
2022/12/05 06:12:33;;;;;;;8.20;4.25;;;;;;;;;;5037011;28;20037;-84
2022/12/05 06:14:58;;;;;;;5.93;4.45;;;;;;;;;;5041134;28;20044;-82
2022/12/05 06:17:24;;;;;;;5.93;3.53;;;;;;;;;;5045432;28;20502;-84
2022/12/05 06:19:49;;;;;;;5.85;3.97;;;;;;;;;;5041115;28;20068;-86
2022/12/05 06:22:15;;;;;;;5.90;3.90;;;;;;;;;;5036478;28;20032;-85
2022/12/05 06:24:40;;;;;;;5.30;2.85;;;;;;;;;;5040374;28;20029;-85
2022/12/05 06:27:05;;;;;;;4.90;3.58;;;;;;;;;;5035147;28;20045;-84
2022/12/05 06:29:34;;;;;;;7.93;3.42;;;;;;;;;;5042175;28;20413;-85
2022/12/05 06:32:00;;;;;;;4.32;3.55;;;;;;;;;;5037722;28;20021;-83
2022/12/05 06:34:25;;;;;;;6.45;3.00;;;;;;;;;;5043941;28;20461;-83
2022/12/05 06:36:51;;;;;;;5.00;4.22;;;;;;;;;;5037589;28;20056;-85
2022/12/05 06:39:16;;;;;;;4.30;3.45;;;;;;;;;;5038717;28;20108;-82
2022/12/05 06:41:41;;;;;;;3.65;2.95;;;;;;;;;;5041320;28;20021;-82
2022/12/05 06:44:08;;;;;;;8.35;3.78;;;;;;;;;;5039106;28;20071;-81
2022/12/05 06:46:33;;;;;;;9.38;3.60;;;;;;;;;;5034754;28;20021;-83
2022/12/05 06:49:00;;;;;;;5.13;3.60;;;;;;;;;;5036859;28;20515;-82
2022/12/05 06:51:26;;;;;;;8.25;3.70;;;;;;;;;;5037672;28;20485;-85
2022/12/05 06:53:51;;;;;;;7.03;4.25;;;;;;;;;;5042652;28;20060;-85
2022/12/05 06:56:18;;;;;;;8.63;4.20;;;;;;;;;;5039421;28;20017;-85
2022/12/05 06:58:47;;;;;;;9.48;5.28;;;;;;;;;;5043836;28;20025;-85
2022/12/05 07:03:58;;;;;;;5.68;3.97;;;;;;;;;;5040610;28;20116;-83
2022/12/05 07:06:24;;;;;;;8.07;4.63;;;;;;;;;;5037998;28;20108;-84
2022/12/05 07:08:49;;;;;;;8.18;4.72;;;;;;;;;;5037139;28;20045;-84
2022/12/05 07:11:15;;;;;;;10.35;6.05;;;;;;;;;;5045614;28;20017;-86
2022/12/05 07:13:41;;;;;;;9.02;4.97;;;;;;;;;;5041791;28;20029;-82
2022/12/05 07:16:07;;;;;;;6.80;4.85;;;;;;;;;;5041750;28;20025;-84
2022/12/05 07:18:33;;;;;;;5.35;3.30;;;;;;;;;;5042451;28;20116;-84
2022/12/05 07:21:07;;;;;;;5.25;3.40;;;;;;;;;;5039907;28;20033;-84
2022/12/05 07:23:32;;;;;;;6.82;3.50;;;;;;;;;;5042157;28;20025;-82
2022/12/05 07:25:58;;;;;;;6.65;3.30;;;;;;;;;;5038143;28;20144;-83
2022/12/05 07:28:24;;;;;;;3.97;2.38;;;;;;;;;;5040433;28;20044;-83
2022/12/05 07:31:11;;;;;;;7.63;3.80;;;;;;;;;;5042208;28;20463;-83
2022/12/05 07:33:37;;;;;;;2.17;1.95;;;;;;;;;;5037499;28;20041;-82
2022/12/05 07:36:05;;;;;;;1.90;1.67;;;;;;;;;;5040562;28;20048;-83
2022/12/05 07:38:32;;;;;;;5.78;3.90;;;;;;;;;;5038908;28;20040;-84
2022/12/05 07:40:57;;;;;;;14.30;9.13;;;;;;;;;;5037425;28;20098;-81
2022/12/05 07:43:22;;;;;;;7.95;5.10;;;;;;;;;;5040062;28;20121;-83
2022/12/05 07:45:48;;;;;;;2.67;1.85;;;;;;;;;;5041044;28;20060;-82
2022/12/05 07:48:14;;;;;;;2.58;2.38;;;;;;;;;;5042353;28;20039;-82
2022/12/05 07:50:39;;;;;;;5.45;2.72;;;;;;;;;;5038401;28;20034;-84
2022/12/05 07:56:15;;;;;;;2.22;1.70;;;;;;;;;;5028323;28;20079;-85
2022/12/05 07:59:10;;;;;;;0.95;0.88;;;;;;;;;;5039694;28;20036;-85
2022/12/05 08:02:11;;;;;;;;;;;;;;;;;;;;;
2022/12/05 08:04:37;;;;;;;2.80;1.55;;;;;;;;;;5034905;28;20036;-83
2022/12/05 08:07:08;;;;;;;1.83;1.50;;;;;;;;;;5031980;28;20128;-82
2022/12/05 08:09:33;;;;;;;6.10;2.55;;;;;;;;;;5039459;28;20759;-81
2022/12/05 08:11:59;;;;;;;16.60;10.07;;;;;;;;;;5037939;28;20059;-81
2022/12/05 08:14:24;;;;;;;20.75;11.50;;;;;;;;;;5042864;28;20044;-82
2022/12/05 08:16:50;;;;;;;8.00;5.05;;;;;;;;;;5035656;28;20053;-86
2022/12/05 08:19:18;;;;;;;3.80;1.40;;;;;;;;;;5038908;28;20074;-84
2022/12/05 08:21:53;;;;;;;2.05;1.83;;;;;;;;;;5037474;28;21407;-83
2022/12/05 08:24:19;;;;;;;2.35;2.15;;;;;;;;;;5036804;28;20370;-84
2022/12/05 08:26:44;;;;;;;1.42;1.33;;;;;;;;;;5040636;28;20121;-83
2022/12/05 08:29:13;;;;;;;1.27;1.17;;;;;;;;;;5049012;28;20037;-83
2022/12/05 08:31:47;;;;;;;4.13;2.80;;;;;;;;;;5037741;28;20171;-87
2022/12/05 08:34:14;;;;;;;2.17;1.77;;;;;;;;;;5044260;28;20047;-83
2022/12/05 08:36:40;;;;;;;5.57;2.22;;;;;;;;;;5044264;28;20041;-84
2022/12/05 08:39:08;;;;;;;3.17;2.35;;;;;;;;;;5038471;28;20033;-81
2022/12/05 08:41:34;;;;;;;4.63;3.28;;;;;;;;;;5047080;28;20029;-83
2022/12/05 08:44:02;;;;;;;3.30;2.05;;;;;;;;;;5047314;28;20035;-84
2022/12/05 08:46:29;;;;;;;3.25;2.05;;;;;;;;;;5038458;28;20032;-84
2022/12/05 08:48:54;;;;;;;4.60;2.35;;;;;;;;;;5036597;28;20029;-84
2022/12/05 08:51:22;;;;;;;2.85;1.90;;;;;;;;;;5040223;28;20552;-82
2022/12/05 08:53:48;;;;;;;4.07;2.70;;;;;;;;;;5043548;28;20393;-82
2022/12/05 08:56:13;;;;;;;2.92;2.10;;;;;;;;;;5039425;28;20021;-81
2022/12/05 08:58:39;;;;;;;4.45;1.67;;;;;;;;;;5038481;28;20021;-84
2022/12/05 09:01:07;;;;;;;3.88;1.92;;;;;;;;;;5045788;28;20108;-83
2022/12/05 09:03:33;;;;;;;4.45;2.75;;;;;;;;;;5036286;28;20030;-82
2022/12/05 09:06:27;;;;;;;3.22;2.33;;;;;;;;;;5041564;28;20029;-81
2022/12/05 09:08:54;;;;;;;5.95;3.13;;;;;;;;;;5039406;28;20088;-83
2022/12/05 09:11:25;;;;;;;3.67;1.95;;;;;;;;;;5039545;28;20022;-83
2022/12/05 09:13:52;;;;;;;5.50;2.22;;;;;;;;;;5039441;28;20033;-85
2022/12/05 09:16:20;;;;;;;3.17;2.05;;;;;;;;;;5037750;28;20029;-84
2022/12/05 09:18:47;;;;;;;4.50;1.88;;;;;;;;;;5036483;28;20373;-84
2022/12/05 09:21:15;;;;;;;3.72;2.88;;;;;;;;;;5038070;28;20064;-83
2022/12/05 09:23:41;;;;;;;2.28;1.75;;;;;;;;;;5042602;28;20120;-82
2022/12/05 09:26:10;;;;;;;1.98;1.27;;;;;;;;;;5034553;28;20516;-82
2022/12/05 09:28:37;;;;;;;2.10;1.45;;;;;;;;;;5032603;28;20541;-81
2022/12/05 09:31:05;;;;;;;5.75;3.25;;;;;;;;;;5040114;28;20044;-81
2022/12/05 09:33:33;;;;;;;5.35;2.58;;;;;;;;;;5035855;28;20029;-84
2022/12/05 09:36:04;;;;;;;1.70;1.38;;;;;;;;;;5044218;28;20444;-84
2022/12/05 09:38:29;;;;;;;2.45;1.95;;;;;;;;;;5044875;28;20043;-82
2022/12/05 09:44:42;;;;;;;2.67;1.73;;;;;;;;;;5040722;28;20512;-83
2022/12/05 09:47:22;;;;;;;3.35;1.70;;;;;;;;;;5039060;28;20024;-83
2022/12/05 09:49:52;;;;;;;2.40;2.20;;;;;;;;;;5036785;28;20041;-84
2022/12/05 09:52:27;;;;;;;3.03;1.88;;;;;;;;;;5040862;28;20029;-83
2022/12/05 09:54:54;;;;;;;3.17;1.92;;;;;;;;;;5030304;28;20701;-83
2022/12/05 09:57:34;;;;;;;5.13;3.17;;;;;;;;;;5043999;28;20077;-85
2022/12/05 10:00:03;;;;;;;2.67;1.90;;;;;;;;;;5047951;28;20041;-82
2022/12/05 10:03:18;;;;;;;2.50;1.77;;;;;;;;;;5038756;28;20592;-83
2022/12/05 10:06:05;;;;;;;3.08;2.33;;;;;;;;;;5040042;28;20060;-82
2022/12/05 10:08:54;;;;;;;3.22;1.88;;;;;;;;;;5034706;28;20033;-85
2022/12/05 10:11:35;;;;;;;3.13;2.00;;;;;;;;;;5039254;28;20048;-84
2022/12/05 10:14:09;;;;;;;3.83;2.85;;;;;;;;;;5036232;28;20028;-83
2022/12/05 10:16:47;;;;;;;2.97;2.03;;;;;;;;;;5043053;28;20029;-84
2022/12/05 10:19:17;;;;;;;5.75;2.53;;;;;;;;;;5038380;28;20036;-83
2022/12/05 10:21:59;;;;;;;2.60;1.88;;;;;;;;;;5035976;28;20110;-82
2022/12/05 10:24:53;;;;;;;4.75;3.00;;;;;;;;;;5044550;28;20450;-84
2022/12/05 10:27:27;;;;;;;3.80;2.65;;;;;;;;;;5031462;28;20049;-82
2022/12/05 10:30:00;;;;;;;6.30;4.45;;;;;;;;;;5035580;28;20560;-82
2022/12/05 10:32:41;;;;;;;2.88;2.20;;;;;;;;;;5035794;28;20977;-82
2022/12/05 10:35:18;;;;;;;5.90;4.30;;;;;;;;;;5037047;28;20024;-83
2022/12/05 10:37:53;;;;;;;3.55;2.67;;;;;;;;;;5030514;28;20366;-82
2022/12/05 10:40:19;;;;;;;3.38;1.40;;;;;;;;;;5040247;28;20033;-81
2022/12/05 10:42:46;;;;;;;3.15;1.70;;;;;;;;;;5038306;28;20024;-82
2022/12/05 10:45:22;;;;;;;5.57;1.77;;;;;;;;;;5035268;28;20021;-81
2022/12/05 10:47:52;;;;;;;3.17;2.13;;;;;;;;;;5033711;28;20029;-83
2022/12/05 10:50:35;;;;;;;2.38;1.80;;;;;;;;;;5040461;28;20037;-82
2022/12/05 10:53:02;;;;;;;4.88;2.15;;;;;;;;;;5033013;28;20049;-85
2022/12/05 10:55:38;;;;;;;7.03;3.30;;;;;;;;;;5039845;28;20025;-82
2022/12/05 10:58:09;;;;;;;3.95;2.38;;;;;;;;;;5032907;28;20017;-85
2022/12/05 11:00:34;;;;;;;3.22;2.35;;;;;;;;;;5037419;28;20462;-85
2022/12/05 11:03:03;;;;;;;2.47;1.90;;;;;;;;;;5038569;28;20047;-82
2022/12/05 11:05:30;;;;;;;4.47;2.97;;;;;;;;;;5036028;28;20033;-80
2022/12/05 11:07:57;;;;;;;3.70;3.25;;;;;;;;;;5036282;28;20803;-83
2022/12/05 11:10:29;;;;;;;4.72;3.22;;;;;;;;;;5031906;28;20090;-82
2022/12/05 11:12:57;;;;;;;1.75;1.50;;;;;;;;;;5035884;28;20107;-84
2022/12/05 11:15:32;;;;;;;2.30;1.85;;;;;;;;;;5033997;28;20128;-83
2022/12/05 11:18:28;;;;;;;5.35;2.88;;;;;;;;;;5038642;28;20587;-83
2022/12/05 11:20:54;;;;;;;5.63;2.83;;;;;;;;;;5034419;28;20029;-83
2022/12/05 11:23:28;;;;;;;6.18;3.47;;;;;;;;;;5036431;28;20082;-81
2022/12/05 11:25:55;;;;;;;5.38;3.28;;;;;;;;;;5039133;28;20044;-84
2022/12/05 11:28:20;;;;;;;5.53;3.63;;;;;;;;;;5044646;28;20080;-81
2022/12/05 11:30:58;;;;;;;3.00;2.03;;;;;;;;;;5036402;28;20021;-83
2022/12/05 11:33:26;;;;;;;3.97;2.78;;;;;;;;;;5041681;28;20469;-82
2022/12/05 11:35:53;;;;;;;5.00;3.15;;;;;;;;;;5038766;28;20072;-81
2022/12/05 11:38:23;;;;;;;4.90;2.65;;;;;;;;;;5035725;28;20037;-81
2022/12/05 11:41:11;;;;;;;3.60;2.85;;;;;;;;;;5036048;28;20064;-82
2022/12/05 11:43:54;;;;;;;3.28;1.85;;;;;;;;;;5042097;28;20041;-82
2022/12/05 11:46:28;;;;;;;4.32;2.47;;;;;;;;;;5043162;28;20032;-83
2022/12/05 11:49:05;;;;;;;2.80;1.85;;;;;;;;;;5044221;28;20488;-83
2022/12/05 11:51:41;;;;;;;4.40;1.73;;;;;;;;;;5044239;28;20017;-80
2022/12/05 11:54:22;;;;;;;3.28;1.92;;;;;;;;;;5039308;28;20037;-83
2022/12/05 11:56:53;;;;;;;2.67;1.88;;;;;;;;;;5040383;28;20029;-83
2022/12/05 11:59:39;;;;;;;3.38;2.00;;;;;;;;;;5039776;28;20079;-84
2022/12/05 12:02:25;;;;;;;3.33;2.53;;;;;;;;;;5042789;28;20079;-85
2022/12/05 12:05:06;;;;;;;3.28;2.22;;;;;;;;;;5044347;28;20087;-83
2022/12/05 12:07:39;;;;;;;4.15;3.15;;;;;;;;;;5043653;28;20052;-83
2022/12/05 12:10:24;;;;;;;2.67;1.83;;;;;;;;;;5043777;28;20020;-84
2022/12/05 12:12:58;;;;;;;2.78;2.25;;;;;;;;;;5039294;28;20033;-82
2022/12/05 12:15:45;;;;;;;3.05;2.25;;;;;;;;;;5039076;28;20489;-84
2022/12/05 12:18:23;;;;;;;8.25;4.28;;;;;;;;;;5041345;28;20021;-84
2022/12/05 12:21:12;;;;;;;3.83;2.20;;;;;;;;;;5036539;28;20022;-83
2022/12/05 12:23:43;;;;;;;6.05;3.72;;;;;;;;;;5042413;28;20032;-83
2022/12/05 12:26:18;;;;;;;4.03;2.35;;;;;;;;;;5046317;28;20045;-83
2022/12/05 12:29:25;;;;;;;3.80;2.55;;;;;;;;;;5042586;28;20079;-85
2022/12/05 12:32:03;;;;;;;3.75;1.90;;;;;;;;;;5038824;28;20108;-84
2022/12/05 12:34:44;;;;;;;3.20;1.70;;;;;;;;;;5048554;28;20655;-85
2022/12/05 12:37:29;;;;;;;4.57;2.78;;;;;;;;;;5042879;28;20501;-83
2022/12/05 12:40:16;;;;;;;4.95;3.58;;;;;;;;;;5042537;28;20497;-84
2022/12/05 12:43:16;;;;;;;3.35;2.30;;;;;;;;;;5041741;28;20099;-83
2022/12/05 12:45:46;;;;;;;;;;;;;;;;;;5042650;28;20029;-83
2022/12/05 12:48:43;;;;;;;3.90;2.08;;;;;;;;;;5072376;28;19928;-83
2022/12/05 12:51:11;;;;;;;4.18;2.58;;;;;;;;;;5042987;28;20021;-83
2022/12/05 12:54:00;;;;;;;7.22;4.53;;;;;;;;;;5039940;28;20432;-82
2022/12/05 12:56:53;;;;;;;6.13;3.53;;;;;;;;;;5042196;28;20033;-84
2022/12/05 12:59:53;;;;;;;4.45;3.15;;;;;;;;;;5038839;28;20037;-83
2022/12/05 13:02:28;;;;;;;6.00;3.78;;;;;;;;;;5043504;28;20025;-82
2022/12/05 13:04:58;;;;;;;4.32;1.98;;;;;;;;;;5041314;28;20036;-83
2022/12/05 13:08:21;;;;;;;11.02;4.18;;;;;;;;;;5042171;28;20029;-82
2022/12/05 13:10:48;;;;;;;7.75;3.30;;;;;;;;;;5049726;28;20029;-82
2022/12/05 13:13:21;;;;;;;7.18;3.30;;;;;;;;;;5035241;28;20078;-82
2022/12/05 13:15:50;;;;;;;3.78;2.30;;;;;;;;;;5047540;28;20040;-82
2022/12/05 13:18:18;;;;;;;7.78;3.33;;;;;;;;;;5045610;28;20052;-82
2022/12/05 13:20:47;;;;;;;4.60;2.63;;;;;;;;;;5040659;28;20116;-82
2022/12/05 13:23:16;;;;;;;4.13;2.30;;;;;;;;;;5042911;28;20076;-82
2022/12/05 13:25:43;;;;;;;10.02;3.00;;;;;;;;;;5041111;28;20053;-84
2022/12/05 13:28:27;;;;;;;4.93;2.95;;;;;;;;;;5042299;28;20389;-84
2022/12/05 13:31:04;;;;;;;4.90;3.05;;;;;;;;;;5042160;28;20538;-84
2022/12/05 13:33:40;;;;;;;6.63;3.67;;;;;;;;;;5043423;28;20024;-82
2022/12/05 13:44:53;;;;;;;8.50;4.40;;;;;;;;;;5038412;28;20819;-82
2022/12/05 13:47:51;;;;;;;8.57;4.93;;;;;;;;;;5042466;28;20025;-80
2022/12/05 13:50:54;;;;;;;6.15;4.00;;;;;;;;;;5041524;28;20071;-82
2022/12/05 13:53:32;;;;;;;10.30;4.72;;;;;;;;;;5043834;28;20508;-85
2022/12/05 13:56:01;;;;;;;5.60;4.30;;;;;;;;;;5040651;28;20109;-82
2022/12/05 13:58:30;;;;;;;7.70;4.70;;;;;;;;;;5040239;28;20033;-82
2022/12/05 14:01:25;;;;;;;9.60;5.00;;;;;;;;;;5035759;28;20025;-81
2022/12/05 14:03:50;;;;;;;4.80;3.10;;;;;;;;;;5033192;28;20400;-81
2022/12/05 14:06:37;;;;;;;4.38;3.08;;;;;;;;;;5043670;28;20033;-83
2022/12/05 14:09:29;;;;;;;8.40;4.10;;;;;;;;;;5039640;28;20025;-82
2022/12/05 14:12:11;;;;;;;7.28;4.10;;;;;;;;;;5037437;28;20040;-83
2022/12/05 14:14:55;;;;;;;8.48;4.47;;;;;;;;;;5039922;28;20025;-83
2022/12/05 14:17:29;;;;;;;7.75;3.95;;;;;;;;;;5040553;28;20021;-82
2022/12/05 14:19:55;;;;;;;7.28;3.67;;;;;;;;;;5040814;28;20433;-83
2022/12/05 14:22:23;;;;;;;6.22;4.38;;;;;;;;;;5059526;28;20033;-83
2022/12/05 14:24:59;;;;;;;6.43;5.20;;;;;;;;;;5039822;28;20031;-84
2022/12/05 14:27:49;;;;;;;6.53;4.80;;;;;;;;;;5037960;28;20033;-83
2022/12/05 14:30:42;;;;;;;6.30;3.53;;;;;;;;;;5037775;28;20402;-84
2022/12/05 14:33:16;;;;;;;7.57;4.15;;;;;;;;;;5042883;28;20385;-84
2022/12/05 14:35:51;;;;;;;6.40;4.40;;;;;;;;;;5040717;28;20059;-85
2022/12/05 14:38:29;;;;;;;6.95;3.80;;;;;;;;;;5038256;28;20406;-85
2022/12/05 14:41:09;;;;;;;6.53;4.97;;;;;;;;;;5052140;28;20469;-84
2022/12/05 14:43:37;;;;;;;9.27;5.75;;;;;;;;;;5042312;28;20048;-85
2022/12/05 14:46:06;;;;;;;9.38;4.88;;;;;;;;;;5037860;28;20032;-83
2022/12/05 14:48:35;;;;;;;8.45;5.72;;;;;;;;;;5037385;28;20120;-82
2022/12/05 14:51:01;;;;;;;14.82;6.57;;;;;;;;;;5035442;28;20086;-81
2022/12/05 14:53:34;;;;;;;12.15;6.88;;;;;;;;;;5035462;28;20065;-81
2022/12/05 14:56:00;;;;;;;6.07;4.18;;;;;;;;;;5037271;28;20025;-80
2022/12/05 14:58:50;;;;;;;10.55;5.30;;;;;;;;;;5042707;28;20025;-79
2022/12/05 15:01:17;;;;;;;9.98;5.57;;;;;;;;;;5039651;28;20029;-83
2022/12/05 15:04:03;;;;;;;8.15;4.63;;;;;;;;;;5041655;28;20450;-83
2022/12/05 15:06:30;;;;;;;11.18;4.97;;;;;;;;;;5040167;28;20120;-83
2022/12/05 15:08:57;;;;;;;7.35;4.72;;;;;;;;;;5039954;28;20035;-82
2022/12/05 15:11:27;;;;;;;7.22;3.88;;;;;;;;;;5041659;28;20368;-83
2022/12/05 15:14:03;;;;;;;9.77;4.82;;;;;;;;;;5037264;28;20025;-81
2022/12/05 15:16:32;;;;;;;6.45;3.92;;;;;;;;;;5041173;28;20029;-83
2022/12/05 15:19:08;;;;;;;9.07;5.63;;;;;;;;;;5036756;28;20532;-81
2022/12/05 15:21:36;;;;;;;6.93;4.07;;;;;;;;;;5042964;28;20480;-82
2022/12/05 15:24:11;;;;;;;7.47;4.85;;;;;;;;;;5041416;28;20033;-81
2022/12/05 15:26:43;;;;;;;8.27;4.53;;;;;;;;;;5037369;28;20056;-81
2022/12/05 15:29:13;;;;;;;9.73;4.85;;;;;;;;;;5042893;28;20024;-81
2022/12/05 15:31:56;;;;;;;7.90;4.95;;;;;;;;;;5037997;28;20508;-83
2022/12/05 15:34:24;;;;;;;5.00;3.38;;;;;;;;;;5035306;28;20854;-83
2022/12/05 15:37:01;;;;;;;7.95;3.95;;;;;;;;;;5038742;28;20025;-81
2022/12/05 15:39:27;;;;;;;6.93;3.92;;;;;;;;;;5037633;28;20025;-82